sensor_id;sensor_type;location;lat;lon;timestamp;P1;durP1;ratioP1;P2;durP2;ratioP2
70049;SDS011;57391;51.306;22.680;2023-03-01T00:01:40;95.20;;;34.20;;
70049;SDS011;57391;51.306;22.680;2023-03-01T00:04:07;93.30;;;34.30;;
70049;SDS011;57391;51.306;22.680;2023-03-01T00:06:34;87.40;;;30.60;;
70049;SDS011;57391;51.306;22.680;2023-03-01T00:09:01;65.30;;;27.50;;
70049;SDS011;57391;51.306;22.680;2023-03-01T00:11:30;65.90;;;26.10;;
70049;SDS011;57391;51.306;22.680;2023-03-01T00:14:01;63.20;;;24.60;;
70049;SDS011;57391;51.306;22.680;2023-03-01T00:16:33;58.00;;;23.30;;
70049;SDS011;57391;51.306;22.680;2023-03-01T00:19:09;61.50;;;25.40;;
70049;SDS011;57391;51.306;22.680;2023-03-01T00:21:39;71.90;;;27.10;;
70049;SDS011;57391;51.306;22.680;2023-03-01T00:24:07;67.00;;;25.60;;
70049;SDS011;57391;51.306;22.680;2023-03-01T00:26:35;58.90;;;23.10;;
70049;SDS011;57391;51.306;22.680;2023-03-01T00:29:02;63.20;;;25.70;;
70049;SDS011;57391;51.306;22.680;2023-03-01T00:31:32;57.00;;;21.20;;
70049;SDS011;57391;51.306;22.680;2023-03-01T00:34:02;70.60;;;28.20;;
70049;SDS011;57391;51.306;22.680;2023-03-01T00:36:33;63.40;;;24.50;;
70049;SDS011;57391;51.306;22.680;2023-03-01T00:39:04;54.80;;;22.90;;
70049;SDS011;57391;51.306;22.680;2023-03-01T00:41:33;79.90;;;28.80;;
70049;SDS011;57391;51.306;22.680;2023-03-01T00:44:01;86.00;;;30.80;;
70049;SDS011;57391;51.306;22.680;2023-03-01T00:46:29;64.40;;;25.90;;
70049;SDS011;57391;51.306;22.680;2023-03-01T00:48:56;58.30;;;22.40;;
70049;SDS011;57391;51.306;22.680;2023-03-01T00:51:26;79.60;;;28.40;;
70049;SDS011;57391;51.306;22.680;2023-03-01T00:53:59;74.90;;;27.80;;
70049;SDS011;57391;51.306;22.680;2023-03-01T00:56:28;81.10;;;28.00;;
70049;SDS011;57391;51.306;22.680;2023-03-01T00:58:55;83.30;;;30.80;;
70049;SDS011;57391;51.306;22.680;2023-03-01T01:05:52;50.20;;;20.20;;
70049;SDS011;57391;51.306;22.680;2023-03-01T01:08:21;47.10;;;20.20;;
70049;SDS011;57391;51.306;22.680;2023-03-01T01:10:48;42.20;;;17.70;;
70049;SDS011;57391;51.306;22.680;2023-03-01T01:13:15;44.10;;;19.10;;
70049;SDS011;57391;51.306;22.680;2023-03-01T01:15:42;43.10;;;18.60;;
70049;SDS011;57391;51.306;22.680;2023-03-01T01:18:10;44.40;;;19.00;;
70049;SDS011;57391;51.306;22.680;2023-03-01T01:20:37;49.00;;;18.30;;
70049;SDS011;57391;51.306;22.680;2023-03-01T01:23:05;43.40;;;18.70;;
70049;SDS011;57391;51.306;22.680;2023-03-01T01:25:35;50.50;;;19.70;;
70049;SDS011;57391;51.306;22.680;2023-03-01T01:28:03;45.80;;;19.60;;
70049;SDS011;57391;51.306;22.680;2023-03-01T01:30:30;41.90;;;18.60;;
70049;SDS011;57391;51.306;22.680;2023-03-01T01:32:57;39.60;;;16.90;;
70049;SDS011;57391;51.306;22.680;2023-03-01T01:35:24;41.40;;;18.20;;
70049;SDS011;57391;51.306;22.680;2023-03-01T01:37:51;43.70;;;18.00;;
70049;SDS011;57391;51.306;22.680;2023-03-01T01:40:19;43.60;;;18.00;;
70049;SDS011;57391;51.306;22.680;2023-03-01T01:42:46;39.90;;;17.40;;
70049;SDS011;57391;51.306;22.680;2023-03-01T01:45:34;42.10;;;18.00;;
70049;SDS011;57391;51.306;22.680;2023-03-01T01:48:06;42.80;;;18.10;;
70049;SDS011;57391;51.306;22.680;2023-03-01T01:50:40;41.60;;;17.80;;
70049;SDS011;57391;51.306;22.680;2023-03-01T01:53:17;36.50;;;16.00;;
70049;SDS011;57391;51.306;22.680;2023-03-01T01:55:55;45.60;;;17.80;;
70049;SDS011;57391;51.306;22.680;2023-03-01T01:58:29;48.50;;;19.40;;
70049;SDS011;57391;51.306;22.680;2023-03-01T02:00:57;51.20;;;19.30;;
70049;SDS011;57391;51.306;22.680;2023-03-01T02:03:30;44.60;;;18.90;;
70049;SDS011;57391;51.306;22.680;2023-03-01T02:06:07;42.60;;;17.90;;
70049;SDS011;57391;51.306;22.680;2023-03-01T02:08:43;42.50;;;18.10;;
70049;SDS011;57391;51.306;22.680;2023-03-01T02:11:13;39.50;;;16.90;;
70049;SDS011;57391;51.306;22.680;2023-03-01T02:13:44;37.20;;;16.20;;
70049;SDS011;57391;51.306;22.680;2023-03-01T02:16:14;42.00;;;19.00;;
70049;SDS011;57391;51.306;22.680;2023-03-01T02:18:42;42.10;;;17.80;;
70049;SDS011;57391;51.306;22.680;2023-03-01T02:24:49;40.00;;;17.50;;
70049;SDS011;57391;51.306;22.680;2023-03-01T02:27:21;38.50;;;16.90;;
70049;SDS011;57391;51.306;22.680;2023-03-01T02:29:54;37.90;;;16.60;;
70049;SDS011;57391;51.306;22.680;2023-03-01T02:32:21;42.60;;;17.10;;
70049;SDS011;57391;51.306;22.680;2023-03-01T02:34:53;42.00;;;16.60;;
70049;SDS011;57391;51.306;22.680;2023-03-01T02:37:23;40.80;;;16.30;;
70049;SDS011;57391;51.306;22.680;2023-03-01T02:39:58;37.70;;;16.60;;
70049;SDS011;57391;51.306;22.680;2023-03-01T02:42:36;42.10;;;15.90;;
70049;SDS011;57391;51.306;22.680;2023-03-01T02:45:15;38.70;;;16.80;;
70049;SDS011;57391;51.306;22.680;2023-03-01T02:47:43;40.20;;;17.20;;
70049;SDS011;57391;51.306;22.680;2023-03-01T02:50:22;40.00;;;16.90;;
70049;SDS011;57391;51.306;22.680;2023-03-01T02:55:36;34.20;;;15.30;;
70049;SDS011;57391;51.306;22.680;2023-03-01T02:58:04;34.80;;;14.60;;
70049;SDS011;57391;51.306;22.680;2023-03-01T03:00:36;35.90;;;15.20;;
70049;SDS011;57391;51.306;22.680;2023-03-01T03:03:15;29.60;;;13.10;;
70049;SDS011;57391;51.306;22.680;2023-03-01T03:05:43;34.20;;;14.20;;
70049;SDS011;57391;51.306;22.680;2023-03-01T03:08:11;31.70;;;13.80;;
70049;SDS011;57391;51.306;22.680;2023-03-01T03:10:40;39.80;;;16.10;;
70049;SDS011;57391;51.306;22.680;2023-03-01T03:13:11;32.10;;;14.00;;
70049;SDS011;57391;51.306;22.680;2023-03-01T03:15:41;31.40;;;14.30;;
70049;SDS011;57391;51.306;22.680;2023-03-01T03:18:15;28.50;;;13.50;;
70049;SDS011;57391;51.306;22.680;2023-03-01T03:20:43;32.50;;;15.30;;
70049;SDS011;57391;51.306;22.680;2023-03-01T03:23:11;28.40;;;13.10;;
70049;SDS011;57391;51.306;22.680;2023-03-01T03:25:39;32.70;;;15.20;;
70049;SDS011;57391;51.306;22.680;2023-03-01T03:28:07;25.10;;;13.20;;
70049;SDS011;57391;51.306;22.680;2023-03-01T03:30:39;31.50;;;14.70;;
70049;SDS011;57391;51.306;22.680;2023-03-01T03:33:09;30.10;;;13.50;;
70049;SDS011;57391;51.306;22.680;2023-03-01T03:35:43;36.20;;;15.60;;
70049;SDS011;57391;51.306;22.680;2023-03-01T03:38:15;32.10;;;15.20;;
70049;SDS011;57391;51.306;22.680;2023-03-01T03:40:48;36.80;;;15.70;;
70049;SDS011;57391;51.306;22.680;2023-03-01T03:43:31;30.80;;;14.20;;
70049;SDS011;57391;51.306;22.680;2023-03-01T03:46:01;32.40;;;13.90;;
70049;SDS011;57391;51.306;22.680;2023-03-01T03:48:34;35.40;;;14.20;;
70049;SDS011;57391;51.306;22.680;2023-03-01T03:51:03;34.30;;;14.90;;
70049;SDS011;57391;51.306;22.680;2023-03-01T03:53:33;28.80;;;12.50;;
70049;SDS011;57391;51.306;22.680;2023-03-01T03:56:00;33.30;;;14.60;;
70049;SDS011;57391;51.306;22.680;2023-03-01T03:58:27;30.70;;;13.50;;
70049;SDS011;57391;51.306;22.680;2023-03-01T04:00:56;34.80;;;14.80;;
70049;SDS011;57391;51.306;22.680;2023-03-01T04:03:26;31.60;;;13.70;;
70049;SDS011;57391;51.306;22.680;2023-03-01T04:05:54;30.00;;;13.20;;
70049;SDS011;57391;51.306;22.680;2023-03-01T04:08:23;31.20;;;13.10;;
70049;SDS011;57391;51.306;22.680;2023-03-01T04:10:56;37.60;;;15.90;;
70049;SDS011;57391;51.306;22.680;2023-03-01T04:13:26;34.90;;;15.40;;
70049;SDS011;57391;51.306;22.680;2023-03-01T04:15:54;31.10;;;15.10;;
70049;SDS011;57391;51.306;22.680;2023-03-01T04:18:23;34.00;;;14.70;;
70049;SDS011;57391;51.306;22.680;2023-03-01T04:20:53;33.40;;;15.60;;
70049;SDS011;57391;51.306;22.680;2023-03-01T04:23:22;29.30;;;13.50;;
70049;SDS011;57391;51.306;22.680;2023-03-01T04:25:52;39.00;;;16.70;;
70049;SDS011;57391;51.306;22.680;2023-03-01T04:28:26;33.70;;;14.90;;
70049;SDS011;57391;51.306;22.680;2023-03-01T04:31:07;33.00;;;14.40;;
70049;SDS011;57391;51.306;22.680;2023-03-01T04:34:00;31.70;;;15.20;;
70049;SDS011;57391;51.306;22.680;2023-03-01T04:36:28;40.40;;;15.70;;
70049;SDS011;57391;51.306;22.680;2023-03-01T04:38:56;35.30;;;14.70;;
70049;SDS011;57391;51.306;22.680;2023-03-01T04:41:24;32.10;;;13.40;;
70049;SDS011;57391;51.306;22.680;2023-03-01T04:43:52;35.70;;;15.50;;
70049;SDS011;57391;51.306;22.680;2023-03-01T04:46:19;36.60;;;14.40;;
70049;SDS011;57391;51.306;22.680;2023-03-01T04:48:48;33.20;;;15.00;;
70049;SDS011;57391;51.306;22.680;2023-03-01T04:51:16;35.80;;;14.90;;
70049;SDS011;57391;51.306;22.680;2023-03-01T04:53:45;31.10;;;13.50;;
70049;SDS011;57391;51.306;22.680;2023-03-01T04:56:13;31.60;;;15.50;;
70049;SDS011;57391;51.306;22.680;2023-03-01T04:58:41;32.30;;;13.80;;
70049;SDS011;57391;51.306;22.680;2023-03-01T05:01:15;32.40;;;15.00;;
70049;SDS011;57391;51.306;22.680;2023-03-01T05:03:50;31.60;;;13.30;;
70049;SDS011;57391;51.306;22.680;2023-03-01T05:06:19;28.80;;;13.10;;
70049;SDS011;57391;51.306;22.680;2023-03-01T05:08:48;32.20;;;14.60;;
70049;SDS011;57391;51.306;22.680;2023-03-01T05:11:15;35.00;;;13.90;;
70049;SDS011;57391;51.306;22.680;2023-03-01T05:13:42;34.40;;;16.00;;
70049;SDS011;57391;51.306;22.680;2023-03-01T05:16:10;39.60;;;16.50;;
70049;SDS011;57391;51.306;22.680;2023-03-01T05:18:38;32.30;;;14.30;;
70049;SDS011;57391;51.306;22.680;2023-03-01T05:21:09;33.20;;;14.90;;
70049;SDS011;57391;51.306;22.680;2023-03-01T05:23:39;37.30;;;16.30;;
70049;SDS011;57391;51.306;22.680;2023-03-01T05:26:08;37.50;;;16.70;;
70049;SDS011;57391;51.306;22.680;2023-03-01T05:28:36;38.80;;;17.30;;
70049;SDS011;57391;51.306;22.680;2023-03-01T05:31:04;35.90;;;15.60;;
70049;SDS011;57391;51.306;22.680;2023-03-01T05:33:40;32.30;;;15.70;;
70049;SDS011;57391;51.306;22.680;2023-03-01T05:36:08;32.40;;;15.30;;
70049;SDS011;57391;51.306;22.680;2023-03-01T05:38:39;36.60;;;16.80;;
70049;SDS011;57391;51.306;22.680;2023-03-01T05:41:14;36.40;;;16.90;;
70049;SDS011;57391;51.306;22.680;2023-03-01T05:43:43;36.20;;;15.30;;
70049;SDS011;57391;51.306;22.680;2023-03-01T05:46:11;31.80;;;15.50;;
70049;SDS011;57391;51.306;22.680;2023-03-01T05:48:39;40.10;;;17.80;;
70049;SDS011;57391;51.306;22.680;2023-03-01T05:51:07;40.40;;;17.40;;
70049;SDS011;57391;51.306;22.680;2023-03-01T05:53:34;34.60;;;15.50;;
70049;SDS011;57391;51.306;22.680;2023-03-01T05:56:04;37.20;;;16.80;;
70049;SDS011;57391;51.306;22.680;2023-03-01T05:58:32;38.70;;;16.10;;
70049;SDS011;57391;51.306;22.680;2023-03-01T06:00:59;40.50;;;18.70;;
70049;SDS011;57391;51.306;22.680;2023-03-01T06:03:26;41.50;;;18.00;;
70049;SDS011;57391;51.306;22.680;2023-03-01T06:05:57;37.80;;;17.70;;
70049;SDS011;57391;51.306;22.680;2023-03-01T06:08:24;42.80;;;18.30;;
70049;SDS011;57391;51.306;22.680;2023-03-01T06:10:53;38.70;;;20.10;;
70049;SDS011;57391;51.306;22.680;2023-03-01T06:13:21;42.90;;;18.90;;
70049;SDS011;57391;51.306;22.680;2023-03-01T06:15:49;39.60;;;19.00;;
70049;SDS011;57391;51.306;22.680;2023-03-01T06:18:16;43.20;;;19.20;;
70049;SDS011;57391;51.306;22.680;2023-03-01T06:20:43;41.90;;;19.00;;
70049;SDS011;57391;51.306;22.680;2023-03-01T06:23:10;43.00;;;19.70;;
70049;SDS011;57391;51.306;22.680;2023-03-01T06:25:37;43.10;;;19.30;;
70049;SDS011;57391;51.306;22.680;2023-03-01T06:28:05;39.70;;;17.90;;
70049;SDS011;57391;51.306;22.680;2023-03-01T06:30:32;39.60;;;18.20;;
70049;SDS011;57391;51.306;22.680;2023-03-01T06:32:59;39.00;;;18.30;;
70049;SDS011;57391;51.306;22.680;2023-03-01T06:35:27;35.20;;;16.70;;
70049;SDS011;57391;51.306;22.680;2023-03-01T06:37:59;41.00;;;18.20;;
70049;SDS011;57391;51.306;22.680;2023-03-01T06:40:28;41.50;;;18.80;;
70049;SDS011;57391;51.306;22.680;2023-03-01T06:42:55;38.90;;;17.50;;
70049;SDS011;57391;51.306;22.680;2023-03-01T06:45:23;34.20;;;16.70;;
70049;SDS011;57391;51.306;22.680;2023-03-01T06:47:51;36.60;;;16.80;;
70049;SDS011;57391;51.306;22.680;2023-03-01T06:50:18;38.40;;;16.60;;
70049;SDS011;57391;51.306;22.680;2023-03-01T06:52:45;34.90;;;17.60;;
70049;SDS011;57391;51.306;22.680;2023-03-01T06:55:13;35.00;;;15.40;;
70049;SDS011;57391;51.306;22.680;2023-03-01T06:57:40;39.10;;;17.70;;
70049;SDS011;57391;51.306;22.680;2023-03-01T07:00:08;36.00;;;16.90;;
70049;SDS011;57391;51.306;22.680;2023-03-01T07:02:36;37.50;;;18.70;;
70049;SDS011;57391;51.306;22.680;2023-03-01T07:05:03;36.30;;;16.70;;
70049;SDS011;57391;51.306;22.680;2023-03-01T07:07:30;32.40;;;15.60;;
70049;SDS011;57391;51.306;22.680;2023-03-01T07:09:58;33.60;;;16.00;;
70049;SDS011;57391;51.306;22.680;2023-03-01T07:12:25;31.70;;;15.30;;
70049;SDS011;57391;51.306;22.680;2023-03-01T07:14:52;29.60;;;14.90;;
70049;SDS011;57391;51.306;22.680;2023-03-01T07:17:19;29.70;;;14.20;;
70049;SDS011;57391;51.306;22.680;2023-03-01T07:19:46;31.70;;;15.40;;
70049;SDS011;57391;51.306;22.680;2023-03-01T07:22:14;29.90;;;14.60;;
70049;SDS011;57391;51.306;22.680;2023-03-01T07:24:41;27.60;;;14.50;;
70049;SDS011;57391;51.306;22.680;2023-03-01T07:27:10;31.30;;;14.00;;
70049;SDS011;57391;51.306;22.680;2023-03-01T07:29:37;30.00;;;15.30;;
70049;SDS011;57391;51.306;22.680;2023-03-01T07:32:05;29.70;;;14.90;;
70049;SDS011;57391;51.306;22.680;2023-03-01T07:34:33;34.20;;;16.40;;
70049;SDS011;57391;51.306;22.680;2023-03-01T07:37:00;29.90;;;14.90;;
70049;SDS011;57391;51.306;22.680;2023-03-01T07:39:27;32.20;;;15.30;;
70049;SDS011;57391;51.306;22.680;2023-03-01T07:41:55;36.30;;;16.30;;
70049;SDS011;57391;51.306;22.680;2023-03-01T07:44:22;34.20;;;15.90;;
70049;SDS011;57391;51.306;22.680;2023-03-01T07:46:50;36.40;;;16.60;;
70049;SDS011;57391;51.306;22.680;2023-03-01T07:49:19;34.40;;;15.50;;
70049;SDS011;57391;51.306;22.680;2023-03-01T07:51:47;35.00;;;16.00;;
70049;SDS011;57391;51.306;22.680;2023-03-01T07:54:14;32.30;;;15.70;;
70049;SDS011;57391;51.306;22.680;2023-03-01T07:56:41;31.70;;;14.40;;
70049;SDS011;57391;51.306;22.680;2023-03-01T07:59:09;29.60;;;14.30;;
70049;SDS011;57391;51.306;22.680;2023-03-01T08:01:36;29.50;;;14.50;;
70049;SDS011;57391;51.306;22.680;2023-03-01T08:04:03;33.30;;;14.50;;
70049;SDS011;57391;51.306;22.680;2023-03-01T08:06:35;31.20;;;13.90;;
70049;SDS011;57391;51.306;22.680;2023-03-01T08:09:02;27.00;;;13.30;;
70049;SDS011;57391;51.306;22.680;2023-03-01T08:11:30;28.30;;;13.20;;
70049;SDS011;57391;51.306;22.680;2023-03-01T08:13:57;29.30;;;14.80;;
70049;SDS011;57391;51.306;22.680;2023-03-01T08:16:24;29.80;;;14.70;;
70049;SDS011;57391;51.306;22.680;2023-03-01T08:18:52;34.10;;;14.30;;
70049;SDS011;57391;51.306;22.680;2023-03-01T08:21:19;37.50;;;15.70;;
70049;SDS011;57391;51.306;22.680;2023-03-01T08:23:46;30.30;;;14.50;;
70049;SDS011;57391;51.306;22.680;2023-03-01T08:26:16;27.00;;;13.40;;
70049;SDS011;57391;51.306;22.680;2023-03-01T08:28:45;31.90;;;15.10;;
70049;SDS011;57391;51.306;22.680;2023-03-01T08:31:16;26.00;;;13.60;;
70049;SDS011;57391;51.306;22.680;2023-03-01T08:33:43;29.70;;;14.50;;
70049;SDS011;57391;51.306;22.680;2023-03-01T08:36:17;30.80;;;14.30;;
70049;SDS011;57391;51.306;22.680;2023-03-01T08:38:44;27.60;;;13.50;;
70049;SDS011;57391;51.306;22.680;2023-03-01T08:41:13;28.60;;;14.00;;
70049;SDS011;57391;51.306;22.680;2023-03-01T08:43:41;26.60;;;13.90;;
70049;SDS011;57391;51.306;22.680;2023-03-01T08:46:08;27.10;;;14.50;;
70049;SDS011;57391;51.306;22.680;2023-03-01T08:48:42;30.10;;;14.80;;
70049;SDS011;57391;51.306;22.680;2023-03-01T08:51:15;25.80;;;13.10;;
70049;SDS011;57391;51.306;22.680;2023-03-01T08:53:44;29.30;;;14.80;;
70049;SDS011;57391;51.306;22.680;2023-03-01T08:56:12;27.70;;;14.40;;
70049;SDS011;57391;51.306;22.680;2023-03-01T08:58:45;29.50;;;15.20;;
70049;SDS011;57391;51.306;22.680;2023-03-01T09:01:15;28.70;;;13.60;;
70049;SDS011;57391;51.306;22.680;2023-03-01T09:03:46;26.60;;;14.00;;
70049;SDS011;57391;51.306;22.680;2023-03-01T09:06:14;30.00;;;15.10;;
70049;SDS011;57391;51.306;22.680;2023-03-01T09:08:45;28.00;;;14.90;;
70049;SDS011;57391;51.306;22.680;2023-03-01T09:11:18;30.30;;;14.70;;
70049;SDS011;57391;51.306;22.680;2023-03-01T09:13:48;28.10;;;14.90;;
70049;SDS011;57391;51.306;22.680;2023-03-01T09:16:17;29.90;;;14.20;;
70049;SDS011;57391;51.306;22.680;2023-03-01T09:18:52;27.60;;;13.70;;
70049;SDS011;57391;51.306;22.680;2023-03-01T09:21:23;27.60;;;14.30;;
70049;SDS011;57391;51.306;22.680;2023-03-01T09:23:50;29.90;;;15.10;;
70049;SDS011;57391;51.306;22.680;2023-03-01T09:26:20;27.00;;;14.20;;
70049;SDS011;57391;51.306;22.680;2023-03-01T09:28:50;27.00;;;13.80;;
70049;SDS011;57391;51.306;22.680;2023-03-01T09:31:20;26.80;;;14.90;;
70049;SDS011;57391;51.306;22.680;2023-03-01T09:33:50;29.20;;;13.90;;
70049;SDS011;57391;51.306;22.680;2023-03-01T09:36:21;25.20;;;12.90;;
70049;SDS011;57391;51.306;22.680;2023-03-01T09:38:52;24.30;;;12.30;;
70049;SDS011;57391;51.306;22.680;2023-03-01T09:44:46;24.80;;;12.90;;
70049;SDS011;57391;51.306;22.680;2023-03-01T09:47:24;29.90;;;13.70;;
70049;SDS011;57391;51.306;22.680;2023-03-01T09:55:15;21.90;;;12.30;;
70049;SDS011;57391;51.306;22.680;2023-03-01T10:03:41;24.70;;;12.40;;
70049;SDS011;57391;51.306;22.680;2023-03-01T10:06:15;21.70;;;10.70;;
70049;SDS011;57391;51.306;22.680;2023-03-01T10:08:57;23.90;;;10.90;;
70049;SDS011;57391;51.306;22.680;2023-03-01T10:11:53;23.30;;;11.80;;
70049;SDS011;57391;51.306;22.680;2023-03-01T10:15:05;20.20;;;10.60;;
70049;SDS011;57391;51.306;22.680;2023-03-01T10:23:18;23.20;;;9.20;;
70049;SDS011;57391;51.306;22.680;2023-03-01T10:28:20;13.60;;;7.30;;
70049;SDS011;57391;51.306;22.680;2023-03-01T10:30:54;16.10;;;7.90;;
70049;SDS011;57391;51.306;22.680;2023-03-01T10:33:30;15.40;;;7.80;;
70049;SDS011;57391;51.306;22.680;2023-03-01T10:36:01;14.40;;;7.70;;
70049;SDS011;57391;51.306;22.680;2023-03-01T10:38:33;15.70;;;7.80;;
70049;SDS011;57391;51.306;22.680;2023-03-01T10:41:15;16.90;;;8.00;;
70049;SDS011;57391;51.306;22.680;2023-03-01T10:43:49;18.20;;;9.10;;
70049;SDS011;57391;51.306;22.680;2023-03-01T10:51:51;17.10;;;8.70;;
70049;SDS011;57391;51.306;22.680;2023-03-01T10:56:50;17.90;;;8.30;;
70049;SDS011;57391;51.306;22.680;2023-03-01T11:05:00;19.50;;;9.20;;
70049;SDS011;57391;51.306;22.680;2023-03-01T11:07:57;17.30;;;8.60;;
70049;SDS011;57391;51.306;22.680;2023-03-01T11:10:28;17.20;;;8.90;;
70049;SDS011;57391;51.306;22.680;2023-03-01T11:13:15;15.40;;;7.80;;
70049;SDS011;57391;51.306;22.680;2023-03-01T11:18:29;17.50;;;8.50;;
70049;SDS011;57391;51.306;22.680;2023-03-01T11:20:59;18.10;;;9.20;;
70049;SDS011;57391;51.306;22.680;2023-03-01T11:23:30;16.20;;;8.20;;
70049;SDS011;57391;51.306;22.680;2023-03-01T11:26:04;17.90;;;9.40;;
70049;SDS011;57391;51.306;22.680;2023-03-01T11:28:37;17.80;;;8.90;;
70049;SDS011;57391;51.306;22.680;2023-03-01T11:31:11;20.30;;;8.80;;
70049;SDS011;57391;51.306;22.680;2023-03-01T11:39:33;17.40;;;9.30;;
70049;SDS011;57391;51.306;22.680;2023-03-01T11:45:24;17.90;;;8.70;;
70049;SDS011;57391;51.306;22.680;2023-03-01T11:48:10;15.20;;;8.60;;
70049;SDS011;57391;51.306;22.680;2023-03-01T11:50:50;18.40;;;8.40;;
70049;SDS011;57391;51.306;22.680;2023-03-01T12:02:12;17.40;;;8.10;;
70049;SDS011;57391;51.306;22.680;2023-03-01T12:07:58;30.20;;;11.50;;
70049;SDS011;57391;51.306;22.680;2023-03-01T12:14:07;15.90;;;8.00;;
70049;SDS011;57391;51.306;22.680;2023-03-01T12:22:21;15.20;;;7.80;;
70049;SDS011;57391;51.306;22.680;2023-03-01T12:30:39;16.10;;;7.90;;
70049;SDS011;57391;51.306;22.680;2023-03-01T12:33:56;15.20;;;6.80;;
70049;SDS011;57391;51.306;22.680;2023-03-01T12:39:07;14.90;;;7.00;;
70049;SDS011;57391;51.306;22.680;2023-03-01T12:41:43;14.90;;;7.90;;
70049;SDS011;57391;51.306;22.680;2023-03-01T12:44:47;17.10;;;8.10;;
70049;SDS011;57391;51.306;22.680;2023-03-01T12:50:48;14.60;;;7.50;;
70049;SDS011;57391;51.306;22.680;2023-03-01T12:53:28;14.00;;;6.70;;
70049;SDS011;57391;51.306;22.680;2023-03-01T12:56:02;14.20;;;7.10;;
70049;SDS011;57391;51.306;22.680;2023-03-01T13:04:27;15.80;;;7.00;;
70049;SDS011;57391;51.306;22.680;2023-03-01T13:10:28;15.90;;;7.60;;
70049;SDS011;57391;51.306;22.680;2023-03-01T13:13:25;15.30;;;7.20;;
70049;SDS011;57391;51.306;22.680;2023-03-01T13:15:55;14.80;;;7.60;;
70049;SDS011;57391;51.306;22.680;2023-03-01T13:20:56;16.90;;;6.90;;
70049;SDS011;57391;51.306;22.680;2023-03-01T13:23:29;15.60;;;7.10;;
70049;SDS011;57391;51.306;22.680;2023-03-01T13:26:15;15.20;;;7.20;;
70049;SDS011;57391;51.306;22.680;2023-03-01T13:33:48;16.80;;;8.10;;
70049;SDS011;57391;51.306;22.680;2023-03-01T13:41:55;14.00;;;7.50;;
70049;SDS011;57391;51.306;22.680;2023-03-01T13:47:17;12.10;;;6.50;;
70049;SDS011;57391;51.306;22.680;2023-03-01T13:49:50;15.30;;;7.50;;
70049;SDS011;57391;51.306;22.680;2023-03-01T13:52:44;15.00;;;7.20;;
70049;SDS011;57391;51.306;22.680;2023-03-01T13:55:16;15.60;;;7.70;;
70049;SDS011;57391;51.306;22.680;2023-03-01T13:57:50;14.10;;;7.20;;
70049;SDS011;57391;51.306;22.680;2023-03-01T14:00:35;14.80;;;7.40;;
70049;SDS011;57391;51.306;22.680;2023-03-01T14:03:08;15.70;;;7.70;;
70049;SDS011;57391;51.306;22.680;2023-03-01T14:06:12;17.20;;;8.20;;
70049;SDS011;57391;51.306;22.680;2023-03-01T14:08:46;17.50;;;6.80;;
70049;SDS011;57391;51.306;22.680;2023-03-01T14:14:29;14.90;;;7.60;;
70049;SDS011;57391;51.306;22.680;2023-03-01T14:20:21;17.90;;;8.50;;
70049;SDS011;57391;51.306;22.680;2023-03-01T14:22:49;16.60;;;8.20;;
70049;SDS011;57391;51.306;22.680;2023-03-01T14:25:34;15.40;;;7.70;;
70049;SDS011;57391;51.306;22.680;2023-03-01T14:30:52;17.70;;;9.00;;
70049;SDS011;57391;51.306;22.680;2023-03-01T14:33:28;17.90;;;8.60;;
70049;SDS011;57391;51.306;22.680;2023-03-01T14:36:00;18.40;;;9.60;;
70049;SDS011;57391;51.306;22.680;2023-03-01T14:38:37;17.30;;;9.10;;
70049;SDS011;57391;51.306;22.680;2023-03-01T14:43:47;18.00;;;9.40;;
70049;SDS011;57391;51.306;22.680;2023-03-01T14:46:41;16.00;;;8.50;;
70049;SDS011;57391;51.306;22.680;2023-03-01T14:51:42;16.10;;;8.30;;
70049;SDS011;57391;51.306;22.680;2023-03-01T14:54:50;12.60;;;7.00;;
70049;SDS011;57391;51.306;22.680;2023-03-01T14:57:23;14.50;;;6.80;;
70049;SDS011;57391;51.306;22.680;2023-03-01T14:59:54;13.70;;;6.90;;
70049;SDS011;57391;51.306;22.680;2023-03-01T15:02:26;13.80;;;7.20;;
70049;SDS011;57391;51.306;22.680;2023-03-01T15:04:58;15.20;;;7.30;;
70049;SDS011;57391;51.306;22.680;2023-03-01T15:07:37;12.30;;;6.50;;
70049;SDS011;57391;51.306;22.680;2023-03-01T15:10:17;14.20;;;7.00;;
70049;SDS011;57391;51.306;22.680;2023-03-01T15:12:48;14.80;;;7.80;;
70049;SDS011;57391;51.306;22.680;2023-03-01T15:18:19;13.50;;;7.00;;
70049;SDS011;57391;51.306;22.680;2023-03-01T15:20:48;14.40;;;6.80;;
70049;SDS011;57391;51.306;22.680;2023-03-01T15:23:28;13.40;;;7.40;;
70049;SDS011;57391;51.306;22.680;2023-03-01T15:25:57;13.10;;;6.70;;
70049;SDS011;57391;51.306;22.680;2023-03-01T15:28:25;13.10;;;6.10;;
70049;SDS011;57391;51.306;22.680;2023-03-01T15:31:04;16.20;;;7.30;;
70049;SDS011;57391;51.306;22.680;2023-03-01T15:33:49;18.80;;;8.40;;
70049;SDS011;57391;51.306;22.680;2023-03-01T15:38:58;25.80;;;11.60;;
70049;SDS011;57391;51.306;22.680;2023-03-01T15:41:52;22.10;;;11.10;;
70049;SDS011;57391;51.306;22.680;2023-03-01T15:44:27;22.60;;;10.90;;
70049;SDS011;57391;51.306;22.680;2023-03-01T15:46:56;23.40;;;11.70;;
70049;SDS011;57391;51.306;22.680;2023-03-01T15:49:41;23.20;;;11.20;;
70049;SDS011;57391;51.306;22.680;2023-03-01T15:52:21;29.50;;;14.60;;
70049;SDS011;57391;51.306;22.680;2023-03-01T15:55:01;30.10;;;14.20;;
70049;SDS011;57391;51.306;22.680;2023-03-01T15:57:32;32.70;;;15.40;;
70049;SDS011;57391;51.306;22.680;2023-03-01T15:59:59;32.90;;;15.00;;
70049;SDS011;57391;51.306;22.680;2023-03-01T16:02:27;32.00;;;15.10;;
70049;SDS011;57391;51.306;22.680;2023-03-01T16:04:55;34.80;;;17.60;;
70049;SDS011;57391;51.306;22.680;2023-03-01T16:07:23;38.60;;;17.90;;
70049;SDS011;57391;51.306;22.680;2023-03-01T16:09:50;49.30;;;21.50;;
70049;SDS011;57391;51.306;22.680;2023-03-01T16:12:17;50.10;;;23.40;;
70049;SDS011;57391;51.306;22.680;2023-03-01T16:14:47;41.90;;;20.90;;
70049;SDS011;57391;51.306;22.680;2023-03-01T16:17:16;46.90;;;21.60;;
70049;SDS011;57391;51.306;22.680;2023-03-01T16:19:44;48.70;;;22.10;;
70049;SDS011;57391;51.306;22.680;2023-03-01T16:22:11;52.00;;;24.10;;
70049;SDS011;57391;51.306;22.680;2023-03-01T16:24:38;50.70;;;22.10;;
70049;SDS011;57391;51.306;22.680;2023-03-01T16:27:07;47.50;;;21.10;;
70049;SDS011;57391;51.306;22.680;2023-03-01T16:29:34;51.90;;;21.60;;
70049;SDS011;57391;51.306;22.680;2023-03-01T16:32:01;57.90;;;22.70;;
70049;SDS011;57391;51.306;22.680;2023-03-01T16:34:29;50.90;;;20.70;;
70049;SDS011;57391;51.306;22.680;2023-03-01T16:36:56;45.60;;;20.00;;
70049;SDS011;57391;51.306;22.680;2023-03-01T16:39:24;50.20;;;20.00;;
70049;SDS011;57391;51.306;22.680;2023-03-01T16:41:51;51.00;;;20.30;;
70049;SDS011;57391;51.306;22.680;2023-03-01T16:44:18;48.00;;;20.00;;
70049;SDS011;57391;51.306;22.680;2023-03-01T16:46:46;47.50;;;19.90;;
70049;SDS011;57391;51.306;22.680;2023-03-01T16:49:13;48.00;;;19.30;;
70049;SDS011;57391;51.306;22.680;2023-03-01T16:51:40;54.00;;;21.80;;
70049;SDS011;57391;51.306;22.680;2023-03-01T16:54:09;57.40;;;22.90;;